createdAt,value
2023-05-10T00:00:17.920Z,29.55
2023-05-10T00:01:17.737Z,29.57
2023-05-10T00:02:17.867Z,29.50
2023-05-10T00:03:17.911Z,29.56
2023-05-10T00:04:17.954Z,29.58
2023-05-10T00:05:17.936Z,29.55
2023-05-10T00:06:18.007Z,29.53
2023-05-10T00:07:18.001Z,29.52
2023-05-10T00:08:18.100Z,29.54
2023-05-10T00:09:18.171Z,29.53
2023-05-10T00:10:18.339Z,29.53
2023-05-10T00:11:18.233Z,29.53
2023-05-10T00:12:18.294Z,29.49
2023-05-10T00:13:18.394Z,29.59
2023-05-10T00:14:18.401Z,29.57
2023-05-10T00:15:18.441Z,29.56
2023-05-10T00:16:18.512Z,29.56
2023-05-10T00:17:18.592Z,29.62
2023-05-10T00:18:18.597Z,29.58
2023-05-10T00:19:18.638Z,29.60
2023-05-10T00:20:18.927Z,29.62
2023-05-10T00:21:18.755Z,29.61
2023-05-10T00:22:18.862Z,29.61
2023-05-10T00:23:18.924Z,29.57
2023-05-10T00:24:18.939Z,29.57
2023-05-10T00:25:19.005Z,29.53
2023-05-10T00:26:19.037Z,29.60
2023-05-10T00:27:19.110Z,29.64
2023-05-10T00:28:19.149Z,29.61
2023-05-10T00:29:19.216Z,29.64
2023-05-10T00:30:19.450Z,29.69
2023-05-10T00:31:19.398Z,29.65
2023-05-10T00:32:19.450Z,29.64
2023-05-10T00:33:19.457Z,29.62
2023-05-10T00:34:19.521Z,29.65
2023-05-10T00:35:19.574Z,29.61
2023-05-10T00:36:19.619Z,29.68
2023-05-10T00:37:19.702Z,29.66
2023-05-10T00:38:19.744Z,29.65
2023-05-10T00:39:19.771Z,29.68
2023-05-10T00:40:19.863Z,29.62
2023-05-10T00:41:19.889Z,29.68
2023-05-10T00:42:19.922Z,29.66
2023-05-10T00:43:20.007Z,29.66
2023-05-10T00:44:20.040Z,29.64
2023-05-10T00:45:20.134Z,29.68
2023-05-10T00:46:20.238Z,29.68
2023-05-10T00:47:20.251Z,29.70
2023-05-10T00:48:20.287Z,29.65
2023-05-10T00:49:20.363Z,29.71
2023-05-10T00:50:20.411Z,29.68
2023-05-10T00:51:20.476Z,29.69
2023-05-10T00:52:20.515Z,29.65
2023-05-10T00:53:20.564Z,29.66
2023-05-10T00:54:20.628Z,29.69
2023-05-10T00:55:20.697Z,29.70
2023-05-10T00:56:20.750Z,29.73
2023-05-10T00:57:20.807Z,29.70
2023-05-10T00:58:20.855Z,29.66
2023-05-10T00:59:20.924Z,29.71
2023-05-10T01:00:21.011Z,29.69
2023-05-10T01:01:21.091Z,29.73
2023-05-10T01:02:21.193Z,29.74
2023-05-10T01:03:21.256Z,29.71
2023-05-10T01:04:21.208Z,29.75
2023-05-10T01:05:21.384Z,29.75
2023-05-10T01:06:21.366Z,29.70
2023-05-10T01:07:21.436Z,29.73
2023-05-10T01:08:21.483Z,29.71
2023-05-10T01:09:21.524Z,29.75
2023-05-10T01:10:21.604Z,29.73
2023-05-10T01:11:21.668Z,29.74
2023-05-10T01:12:21.788Z,29.75
2023-05-10T01:13:21.813Z,29.74
2023-05-10T01:14:21.893Z,29.76
2023-05-10T01:15:21.958Z,29.77
2023-05-10T01:16:22.064Z,29.75
2023-05-10T01:17:22.085Z,29.77
2023-05-10T01:18:22.131Z,29.78
2023-05-10T01:19:22.171Z,29.82
2023-05-10T01:20:22.247Z,29.80
2023-05-10T01:21:22.246Z,29.79
2023-05-10T01:22:22.349Z,29.80
2023-05-10T01:23:22.430Z,29.74
2023-05-10T01:24:22.470Z,29.78
2023-05-10T01:25:22.532Z,29.79
2023-05-10T01:26:22.598Z,29.79
2023-05-10T01:27:22.640Z,29.82
2023-05-10T01:28:22.726Z,29.79
2023-05-10T01:29:22.770Z,29.80
2023-05-10T01:30:22.867Z,29.82
2023-05-10T01:31:22.941Z,29.83
2023-05-10T01:32:22.987Z,29.83
2023-05-10T01:33:23.026Z,29.84
2023-05-10T01:34:23.065Z,29.83
2023-05-10T01:35:23.140Z,29.80
2023-05-10T01:36:23.161Z,29.79
2023-05-10T01:37:23.254Z,29.84
2023-05-10T01:38:23.296Z,29.88
2023-05-10T01:39:23.374Z,29.83
2023-05-10T01:40:23.444Z,29.82
2023-05-10T01:41:23.474Z,29.83
2023-05-10T01:42:23.512Z,29.86
2023-05-10T01:43:23.626Z,29.79
2023-05-10T01:44:23.682Z,29.84
2023-05-10T01:45:23.720Z,29.86
2023-05-10T01:46:23.922Z,29.87
2023-05-10T01:47:23.809Z,29.86
2023-05-10T01:48:23.894Z,29.83
2023-05-10T01:49:23.969Z,29.84
2023-05-10T01:50:24.013Z,29.88
2023-05-10T01:51:24.090Z,29.86
2023-05-10T01:52:24.139Z,29.86
2023-05-10T01:53:24.199Z,29.86
2023-05-10T01:54:24.309Z,29.87
2023-05-10T01:55:24.361Z,29.87
2023-05-10T01:56:24.421Z,29.87
2023-05-10T01:57:24.430Z,29.91
2023-05-10T01:58:24.520Z,29.89
2023-05-10T01:59:24.554Z,29.88
2023-05-10T02:00:24.657Z,29.88
2023-05-10T02:01:24.684Z,29.91
2023-05-10T02:02:24.797Z,29.88
2023-05-10T02:03:24.847Z,29.88
2023-05-10T02:04:24.896Z,29.89
2023-05-10T02:05:24.946Z,29.88
2023-05-10T02:06:24.984Z,29.92
2023-05-10T02:07:25.024Z,29.91
2023-05-10T02:08:25.138Z,29.92
2023-05-10T02:09:25.184Z,29.89
2023-05-10T02:10:25.209Z,29.92
2023-05-10T02:11:25.295Z,29.91
2023-05-10T02:12:25.372Z,29.88
2023-05-10T02:13:25.548Z,29.92
2023-05-10T02:14:25.502Z,29.88
2023-05-10T02:15:25.538Z,29.93
2023-05-10T02:16:25.620Z,29.95
2023-05-10T02:17:25.682Z,29.95
2023-05-10T02:18:25.705Z,29.93
2023-05-10T02:19:25.746Z,29.91
2023-05-10T02:20:25.839Z,29.95
2023-05-10T02:21:25.854Z,29.92
2023-05-10T02:22:25.878Z,30.00
2023-05-10T02:23:25.918Z,29.96
2023-05-10T02:24:25.952Z,29.96
2023-05-10T02:25:26.013Z,29.97
2023-05-10T02:26:26.076Z,29.93
2023-05-10T02:27:26.122Z,29.99
2023-05-10T02:28:26.175Z,29.92
2023-05-10T02:29:26.223Z,29.93
2023-05-10T02:30:26.244Z,29.95
2023-05-10T02:31:26.334Z,29.99
2023-05-10T02:32:26.388Z,29.96
2023-05-10T02:33:26.428Z,29.99
2023-05-10T02:34:26.492Z,29.99
2023-05-10T02:35:26.511Z,29.99
2023-05-10T02:36:26.579Z,29.91
2023-05-10T02:37:26.647Z,29.92
2023-05-10T02:38:26.734Z,29.93
2023-05-10T02:39:26.705Z,29.99
2023-05-10T02:40:28.678Z,29.93
2023-05-10T02:41:26.797Z,29.96
2023-05-10T02:42:26.877Z,29.95
2023-05-10T02:43:26.891Z,29.99
2023-05-10T02:44:26.908Z,29.94
2023-05-10T02:45:26.970Z,29.93
2023-05-10T02:46:27.008Z,29.95
2023-05-10T02:47:27.034Z,29.92
2023-05-10T02:48:27.081Z,29.95
2023-05-10T02:49:27.094Z,29.99
2023-05-10T02:50:27.148Z,29.99
2023-05-10T02:51:27.192Z,29.99
2023-05-10T02:52:27.211Z,29.95
2023-05-10T02:53:27.239Z,30.00
2023-05-10T02:54:27.280Z,29.97
2023-05-10T02:55:27.327Z,29.98
2023-05-10T02:56:27.378Z,29.97
2023-05-10T02:57:27.461Z,29.94
2023-05-10T02:58:27.468Z,29.97
2023-05-10T02:59:27.520Z,29.98
2023-05-10T03:00:27.526Z,29.94
2023-05-10T03:01:27.671Z,30.00
2023-05-10T03:02:27.682Z,30.00
2023-05-10T03:03:27.720Z,29.97
2023-05-10T03:04:27.783Z,30.00
2023-05-10T03:05:27.779Z,29.99
2023-05-10T03:06:27.819Z,29.97
2023-05-10T03:07:27.835Z,30.01
2023-05-10T03:08:27.870Z,30.01
2023-05-10T03:09:27.869Z,30.00
2023-05-10T03:10:27.948Z,30.00
2023-05-10T03:11:27.909Z,30.02
2023-05-10T03:12:27.966Z,30.00
2023-05-10T03:13:28.110Z,30.00
2023-05-10T03:14:28.172Z,29.94
2023-05-10T03:15:28.048Z,30.00
2023-05-10T03:16:28.258Z,30.00
2023-05-10T03:17:28.127Z,30.01
2023-05-10T03:18:28.165Z,30.00
2023-05-10T03:19:28.145Z,29.98
2023-05-10T03:20:28.197Z,30.02
2023-05-10T03:21:28.307Z,30.04
2023-05-10T03:22:28.274Z,30.01
2023-05-10T03:23:28.311Z,29.97
2023-05-10T03:24:28.359Z,30.01
2023-05-10T03:25:28.390Z,30.02
2023-05-10T03:26:28.428Z,30.01
2023-05-10T03:27:28.468Z,29.94
2023-05-10T03:28:28.498Z,30.01
2023-05-10T03:29:28.543Z,30.04
2023-05-10T03:30:28.567Z,29.99
2023-05-10T03:31:28.646Z,29.98
2023-05-10T03:32:28.598Z,30.00
2023-05-10T03:33:28.622Z,30.01
2023-05-10T03:34:28.688Z,30.04
2023-05-10T03:35:28.691Z,30.04
2023-05-10T03:36:28.741Z,30.04
2023-05-10T03:37:28.755Z,30.00
2023-05-10T03:38:30.373Z,30.01
2023-05-10T03:39:28.800Z,30.04
2023-05-10T03:40:28.823Z,30.02
2023-05-10T03:41:28.831Z,30.00
2023-05-10T03:42:28.830Z,30.02
2023-05-10T03:43:28.860Z,30.05
2023-05-10T03:44:28.870Z,30.00
2023-05-10T03:45:28.920Z,30.04
2023-05-10T03:46:29.047Z,30.02
2023-05-10T03:47:28.912Z,30.06
2023-05-10T03:48:28.922Z,30.06
2023-05-10T03:49:28.972Z,30.07
2023-05-10T03:50:28.974Z,30.06
2023-05-10T03:51:28.974Z,30.07
2023-05-10T03:52:29.010Z,30.03
2023-05-10T03:53:29.012Z,30.05
2023-05-10T03:54:29.054Z,30.01
2023-05-10T03:55:29.048Z,30.04
2023-05-10T03:56:29.072Z,30.05
2023-05-10T03:57:29.092Z,30.05
2023-05-10T03:58:29.152Z,30.07
2023-05-10T03:59:29.175Z,30.08
2023-05-10T04:00:29.179Z,30.10
2023-05-10T04:01:29.238Z,30.05
2023-05-10T04:02:29.324Z,30.03
2023-05-10T04:03:29.389Z,30.04
2023-05-10T04:04:29.303Z,30.10
2023-05-10T04:05:29.360Z,30.20
2023-05-10T04:06:29.493Z,30.27
2023-05-10T04:07:29.319Z,30.38
2023-05-10T04:08:29.324Z,30.35
2023-05-10T04:09:29.329Z,30.38
2023-05-10T04:10:29.344Z,30.60
2023-05-10T04:11:29.323Z,30.43
2023-05-10T04:12:29.302Z,30.53
2023-05-10T04:13:29.386Z,30.54
2023-05-10T04:14:29.323Z,30.57
2023-05-10T04:15:29.336Z,30.74
2023-05-10T04:16:29.351Z,30.73
2023-05-10T04:17:29.322Z,30.70
2023-05-10T04:18:29.339Z,30.81
2023-05-10T04:19:29.320Z,30.84
2023-05-10T04:20:29.314Z,30.88
2023-05-10T04:21:29.327Z,30.91
2023-05-10T04:22:29.291Z,30.94
2023-05-10T04:23:29.324Z,30.94
2023-05-10T04:24:29.296Z,31.04
2023-05-10T04:25:29.283Z,31.05
2023-05-10T04:26:29.350Z,31.18
2023-05-10T04:27:29.359Z,31.12
2023-05-10T04:28:29.363Z,31.25
2023-05-10T04:29:29.369Z,31.18
2023-05-10T04:30:29.363Z,31.20
2023-05-10T04:31:29.459Z,31.23
2023-05-10T04:32:29.434Z,31.21
2023-05-10T04:33:29.440Z,31.18
2023-05-10T04:34:29.396Z,31.24
2023-05-10T04:35:29.493Z,31.16
2023-05-10T04:36:29.402Z,31.31
2023-05-10T04:37:29.417Z,31.24
2023-05-10T04:38:29.429Z,31.23
2023-05-10T04:39:29.385Z,31.25
2023-05-10T04:40:29.388Z,31.23
2023-05-10T04:41:29.385Z,31.25
2023-05-10T04:42:29.387Z,31.31
2023-05-10T04:43:29.385Z,31.23
2023-05-10T04:44:29.421Z,31.34
2023-05-10T04:45:29.417Z,31.34
2023-05-10T04:46:29.417Z,31.32
2023-05-10T04:47:29.485Z,31.36
2023-05-10T04:48:29.400Z,31.39
2023-05-10T04:49:29.398Z,31.32
2023-05-10T04:50:29.442Z,31.36
2023-05-10T04:51:29.456Z,31.32
2023-05-10T04:52:29.423Z,31.29
2023-05-10T04:53:29.421Z,31.22
2023-05-10T04:54:29.438Z,31.17
2023-05-10T04:55:29.388Z,31.21
2023-05-10T04:56:29.422Z,31.21
2023-05-10T04:57:29.412Z,31.16
2023-05-10T04:58:29.387Z,31.19
2023-05-10T04:59:29.429Z,31.13
2023-05-10T05:00:29.406Z,31.13
2023-05-10T05:01:29.424Z,31.02
2023-05-10T05:02:29.471Z,31.16
2023-05-10T05:03:29.493Z,31.13
2023-05-10T05:04:29.432Z,31.15
2023-05-10T05:05:29.408Z,31.11
2023-05-10T05:06:29.410Z,31.15
2023-05-10T05:07:29.413Z,31.09
2023-05-10T05:08:29.430Z,31.04
2023-05-10T05:09:29.432Z,31.02
2023-05-10T05:10:29.437Z,31.10
2023-05-10T05:11:29.400Z,31.11
2023-05-10T05:12:29.405Z,31.08
2023-05-10T05:13:29.529Z,31.08
2023-05-10T05:14:29.428Z,31.01
2023-05-10T05:15:29.391Z,31.05
2023-05-10T05:16:29.387Z,31.11
2023-05-10T05:17:29.388Z,31.08
2023-05-10T05:18:29.391Z,31.05
2023-05-10T05:19:29.392Z,31.07
2023-05-10T05:20:29.366Z,31.03
2023-05-10T05:21:29.365Z,31.10
2023-05-10T05:22:29.453Z,31.10
2023-05-10T05:23:29.399Z,30.97
2023-05-10T05:24:29.355Z,31.04
2023-05-10T05:25:29.389Z,31.08
2023-05-10T05:26:29.381Z,31.07
2023-05-10T05:27:29.393Z,31.02
2023-05-10T05:28:29.397Z,30.95
2023-05-10T05:29:29.415Z,31.04
2023-05-10T05:30:29.393Z,30.99
2023-05-10T05:31:29.354Z,31.08
2023-05-10T05:32:29.415Z,31.00
2023-05-10T05:33:29.352Z,31.04
2023-05-10T05:34:29.403Z,31.18
2023-05-10T05:35:29.402Z,31.37
2023-05-10T05:36:29.372Z,31.72
2023-05-10T05:37:29.415Z,31.96
2023-05-10T05:38:29.428Z,32.50
2023-05-10T05:39:29.392Z,32.79
2023-05-10T05:40:29.379Z,33.25
2023-05-10T05:41:29.378Z,33.24
2023-05-10T05:42:29.402Z,33.56
2023-05-10T05:43:29.390Z,34.27
2023-05-10T05:44:29.401Z,33.85
2023-05-10T05:45:29.559Z,33.86
2023-05-10T05:46:29.474Z,34.50
2023-05-10T05:47:29.516Z,34.68
2023-05-10T05:48:29.503Z,34.54
2023-05-10T05:49:29.828Z,34.22
2023-05-10T05:50:29.757Z,34.43
2023-05-10T05:51:29.526Z,34.35
2023-05-10T05:52:29.520Z,34.77
2023-05-10T05:53:29.526Z,34.73
2023-05-10T05:54:29.577Z,34.79
2023-05-10T05:55:29.582Z,34.66
2023-05-10T05:56:29.587Z,34.56
2023-05-10T05:57:29.598Z,34.45
2023-05-10T05:58:29.613Z,34.60
2023-05-10T05:59:29.600Z,34.58
2023-05-10T06:00:29.578Z,34.75
2023-05-10T06:01:29.717Z,34.67
2023-05-10T06:02:29.708Z,34.73
2023-05-10T06:03:29.711Z,34.77
2023-05-10T06:04:29.829Z,34.63
2023-05-10T06:05:29.615Z,34.79
2023-05-10T06:06:29.796Z,34.57
2023-05-10T06:07:30.246Z,34.54
2023-05-10T06:08:29.640Z,34.57
2023-05-10T06:09:29.770Z,34.69
2023-05-10T06:10:29.652Z,34.53
2023-05-10T06:11:29.792Z,34.62
2023-05-10T06:12:29.605Z,34.65
2023-05-10T06:13:29.665Z,34.64
2023-05-10T06:14:29.567Z,34.50
2023-05-10T06:15:29.574Z,34.42
2023-05-10T06:16:29.640Z,34.35
2023-05-10T06:17:29.662Z,34.30
2023-05-10T06:18:29.547Z,34.46
2023-05-10T06:19:29.610Z,34.45
2023-05-10T06:20:29.619Z,34.34
2023-05-10T06:21:29.614Z,34.28
2023-05-10T06:22:29.671Z,34.25
2023-05-10T06:23:29.715Z,34.30
2023-05-10T06:24:29.756Z,34.18
2023-05-10T06:25:29.850Z,34.22
2023-05-10T06:26:29.810Z,34.19
2023-05-10T06:27:29.890Z,34.26
2023-05-10T06:28:30.291Z,34.09
2023-05-10T06:29:29.981Z,34.38
2023-05-10T06:30:30.439Z,34.16
2023-05-10T06:31:30.132Z,34.20
2023-05-10T06:32:30.171Z,34.29
2023-05-10T06:33:30.225Z,34.21
2023-05-10T06:34:30.271Z,34.22
2023-05-10T06:35:30.277Z,34.23
2023-05-10T06:36:30.387Z,34.34
2023-05-10T06:37:30.443Z,34.12
2023-05-10T06:38:30.771Z,34.53
2023-05-10T06:39:30.569Z,34.47
2023-05-10T06:40:30.654Z,34.67
2023-05-10T06:41:30.680Z,34.73
2023-05-10T06:42:30.686Z,34.79
2023-05-10T06:43:30.811Z,34.90
2023-05-10T06:44:30.765Z,34.90
2023-05-10T06:45:30.835Z,34.65
2023-05-10T06:46:30.918Z,34.83
2023-05-10T06:47:30.933Z,34.70
2023-05-10T06:48:31.299Z,34.74
2023-05-10T06:49:30.973Z,34.77
2023-05-10T06:50:31.261Z,34.70
2023-05-10T06:51:31.026Z,34.58
2023-05-10T06:52:31.074Z,34.51
2023-05-10T06:53:31.166Z,34.40
2023-05-10T06:54:31.205Z,34.48
2023-05-10T06:55:31.241Z,34.35
2023-05-10T06:56:31.239Z,34.31
2023-05-10T06:57:32.200Z,34.32
2023-05-10T06:58:31.292Z,34.25
2023-05-10T06:59:31.420Z,34.27
2023-05-10T07:00:31.390Z,34.28
2023-05-10T07:01:31.406Z,34.20
2023-05-10T07:02:31.478Z,34.20
2023-05-10T07:03:31.771Z,34.18
2023-05-10T07:04:31.855Z,34.10
2023-05-10T07:05:31.803Z,34.21
2023-05-10T07:06:33.762Z,34.17
2023-05-10T07:07:31.672Z,34.16
2023-05-10T07:08:31.726Z,34.05
2023-05-10T07:09:31.727Z,34.01
2023-05-10T07:10:31.797Z,34.00
2023-05-10T07:11:31.818Z,34.12
2023-05-10T07:12:31.838Z,34.05
2023-05-10T07:13:31.901Z,34.05
2023-05-10T07:14:31.877Z,34.03
2023-05-10T07:15:32.290Z,34.12
2023-05-10T07:16:31.967Z,34.21
2023-05-10T07:17:32.105Z,34.14
2023-05-10T07:18:32.065Z,34.13
2023-05-10T07:19:32.272Z,34.09
2023-05-10T07:20:32.064Z,34.06
2023-05-10T07:21:32.143Z,34.07
2023-05-10T07:22:32.246Z,33.98
2023-05-10T07:23:32.090Z,34.09
2023-05-10T07:24:32.166Z,34.12
2023-05-10T07:25:32.140Z,34.27
2023-05-10T07:26:32.152Z,34.04
2023-05-10T07:27:32.167Z,34.17
2023-05-10T07:28:32.228Z,34.29
2023-05-10T07:29:32.201Z,34.38
2023-05-10T07:30:32.271Z,34.21
2023-05-10T07:31:32.273Z,34.11
2023-05-10T07:32:32.378Z,34.13
2023-05-10T07:33:32.279Z,34.17
2023-05-10T07:34:32.318Z,34.38
2023-05-10T07:35:32.782Z,34.29
2023-05-10T07:36:32.308Z,34.13
2023-05-10T07:37:32.826Z,34.23
2023-05-10T07:38:32.395Z,34.08
2023-05-10T07:39:32.849Z,33.99
2023-05-10T07:40:32.361Z,34.16
2023-05-10T07:41:33.923Z,34.17
2023-05-10T07:42:32.413Z,34.13
2023-05-10T07:43:32.325Z,34.30
2023-05-10T07:44:32.349Z,34.35
2023-05-10T07:45:32.361Z,34.44
2023-05-10T07:46:32.350Z,34.36
2023-05-10T07:47:32.335Z,34.42
2023-05-10T07:48:32.288Z,34.52
2023-05-10T07:49:32.304Z,34.47
2023-05-10T07:50:32.293Z,34.56
2023-05-10T07:51:32.392Z,34.50
2023-05-10T07:52:32.247Z,34.56
2023-05-10T07:53:32.306Z,34.57
2023-05-10T07:54:32.310Z,34.43
2023-05-10T07:55:32.322Z,34.45
2023-05-10T07:56:32.258Z,34.61
2023-05-10T07:57:32.255Z,34.54
2023-05-10T07:58:32.217Z,34.39
2023-05-10T07:59:32.245Z,34.40
2023-05-10T08:00:32.258Z,34.63
2023-05-10T08:01:32.253Z,34.44
2023-05-10T08:02:32.318Z,34.65
2023-05-10T08:03:32.362Z,34.53
2023-05-10T08:04:32.291Z,34.59
2023-05-10T08:05:33.117Z,34.39
2023-05-10T08:06:32.227Z,34.50
2023-05-10T08:07:32.254Z,34.49
2023-05-10T08:08:33.036Z,34.43
2023-05-10T08:09:32.422Z,34.62
2023-05-10T08:10:32.445Z,34.52
2023-05-10T08:11:33.719Z,34.34
2023-05-10T08:12:32.822Z,34.40
2023-05-10T08:13:32.775Z,34.38
2023-05-10T08:14:32.688Z,34.38
2023-05-10T08:15:32.750Z,34.46
2023-05-10T08:16:32.926Z,34.37
2023-05-10T08:17:32.907Z,34.34
2023-05-10T08:18:33.316Z,34.48
2023-05-10T08:19:32.992Z,34.44
2023-05-10T08:20:33.060Z,34.43
2023-05-10T08:21:33.141Z,34.51
2023-05-10T08:22:33.112Z,34.44
2023-05-10T08:23:33.185Z,34.42
2023-05-10T08:24:33.223Z,34.58
2023-05-10T08:25:33.269Z,34.41
2023-05-10T08:26:33.310Z,34.30
2023-05-10T08:27:33.357Z,34.24
2023-05-10T08:28:33.417Z,34.09
2023-05-10T08:29:46.249Z,34.08
2023-05-10T08:30:34.385Z,33.94
2023-05-10T08:31:33.458Z,33.87
2023-05-10T08:32:33.464Z,34.03
2023-05-10T08:33:33.399Z,34.00
2023-05-10T08:34:33.809Z,34.21
2023-05-10T08:35:33.405Z,34.27
2023-05-10T08:36:33.362Z,34.17
2023-05-10T08:37:33.352Z,34.08
2023-05-10T08:38:33.361Z,34.08
2023-05-10T08:39:33.833Z,34.12
2023-05-10T08:40:33.332Z,34.36
2023-05-10T08:41:33.347Z,34.34
2023-05-10T08:42:33.296Z,34.46
2023-05-10T08:43:33.334Z,34.71
2023-05-10T08:44:33.365Z,34.77
2023-05-10T08:45:33.315Z,35.05
2023-05-10T08:46:33.318Z,35.04
2023-05-10T08:47:33.362Z,34.91
2023-05-10T08:48:33.280Z,35.05
2023-05-10T08:49:33.340Z,34.92
2023-05-10T08:50:33.299Z,35.22
2023-05-10T08:51:33.311Z,35.20
2023-05-10T08:52:33.314Z,35.55
2023-05-10T08:53:33.310Z,35.36
2023-05-10T08:54:33.346Z,35.84
2023-05-10T08:55:33.380Z,35.78
2023-05-10T08:56:33.446Z,35.89
2023-05-10T08:57:33.873Z,35.92
2023-05-10T08:58:33.515Z,35.80
2023-05-10T08:59:33.605Z,35.68
2023-05-10T09:00:33.771Z,35.76
2023-05-10T09:01:33.725Z,35.82
2023-05-10T09:02:33.819Z,35.79
2023-05-10T09:03:33.862Z,35.83
2023-05-10T09:04:33.995Z,35.86
2023-05-10T09:05:33.969Z,35.90
2023-05-10T09:06:34.032Z,36.02
2023-05-10T09:07:34.822Z,36.05
2023-05-10T09:08:34.143Z,35.95
2023-05-10T09:09:34.203Z,36.08
2023-05-10T09:10:34.267Z,36.01
2023-05-10T09:11:34.302Z,36.04
2023-05-10T09:12:34.373Z,36.01
2023-05-10T09:13:34.401Z,36.02
2023-05-10T09:14:34.488Z,35.91
2023-05-10T09:15:34.556Z,36.04
2023-05-10T09:16:34.657Z,35.91
2023-05-10T09:17:34.695Z,35.90
2023-05-10T09:18:34.837Z,35.96
2023-05-10T09:19:34.758Z,36.11
2023-05-10T09:20:34.851Z,36.32
2023-05-10T09:21:35.327Z,36.35
2023-05-10T09:22:34.964Z,36.22
2023-05-10T09:23:34.996Z,36.13
2023-05-10T09:24:35.089Z,36.21
2023-05-10T09:25:35.121Z,36.06
2023-05-10T09:26:35.316Z,36.24
2023-05-10T09:27:35.247Z,36.26
2023-05-10T09:28:35.316Z,36.11
2023-05-10T09:29:35.358Z,36.19
2023-05-10T09:30:35.405Z,36.26
2023-05-10T09:31:35.423Z,36.19
2023-05-10T09:32:35.488Z,35.95
2023-05-10T09:33:35.538Z,35.83
2023-05-10T09:34:35.614Z,35.08
2023-05-10T09:35:35.615Z,34.59
2023-05-10T09:36:35.620Z,34.36
2023-05-10T09:37:35.676Z,34.87
2023-05-10T09:38:35.817Z,34.93
2023-05-10T09:39:35.683Z,34.88
2023-05-10T09:40:35.705Z,34.96
2023-05-10T09:41:35.714Z,35.23
2023-05-10T09:42:35.718Z,35.16
2023-05-10T09:43:35.817Z,35.10
2023-05-10T09:44:35.753Z,35.11
2023-05-10T09:45:38.138Z,35.06
2023-05-10T09:46:36.004Z,35.00
2023-05-10T09:47:36.089Z,35.01
2023-05-10T09:48:35.977Z,35.02
2023-05-10T09:49:36.030Z,35.04
2023-05-10T09:50:36.016Z,35.01
2023-05-10T09:51:36.886Z,34.98
2023-05-10T09:52:36.011Z,34.97
2023-05-10T09:53:36.139Z,34.91
2023-05-10T09:54:36.882Z,34.90
2023-05-10T09:55:36.198Z,34.78
2023-05-10T09:56:36.255Z,34.72
2023-05-10T09:57:36.335Z,34.71
2023-05-10T09:58:36.440Z,34.72
2023-05-10T09:59:36.488Z,34.65
2023-05-10T10:00:36.549Z,34.64
2023-05-10T10:01:36.583Z,34.64
2023-05-10T10:02:36.846Z,34.57
2023-05-10T10:03:36.665Z,34.59
2023-05-10T10:04:36.766Z,34.58
2023-05-10T10:05:36.811Z,34.49
2023-05-10T10:06:36.876Z,34.48
2023-05-10T10:07:36.931Z,34.47
2023-05-10T10:08:36.958Z,34.37
2023-05-10T10:09:37.021Z,34.36
2023-05-10T10:10:37.120Z,34.32
2023-05-10T10:11:37.141Z,34.30
2023-05-10T10:12:37.201Z,34.30
2023-05-10T10:13:37.273Z,34.34
2023-05-10T10:14:37.307Z,34.32
2023-05-10T10:15:37.915Z,34.23
2023-05-10T10:16:41.427Z,34.26
2023-05-10T10:17:38.472Z,34.22
2023-05-10T10:18:37.917Z,34.18
2023-05-10T10:19:38.388Z,34.21
2023-05-10T10:20:37.415Z,34.23
2023-05-10T10:21:37.353Z,34.23
2023-05-10T10:22:37.861Z,34.25
2023-05-10T10:23:37.349Z,34.27
2023-05-10T10:24:37.376Z,34.33
2023-05-10T10:25:37.397Z,34.44
2023-05-10T10:26:37.861Z,34.54
2023-05-10T10:27:37.472Z,34.52
2023-05-10T10:28:37.503Z,34.49
2023-05-10T10:29:37.513Z,34.43
2023-05-10T10:30:37.589Z,34.12
2023-05-10T10:31:37.810Z,34.10
2023-05-10T10:32:37.653Z,34.01
2023-05-10T10:33:37.674Z,34.00
2023-05-10T10:34:37.744Z,34.03
2023-05-10T10:35:37.858Z,34.02
2023-05-10T10:36:37.818Z,34.20
2023-05-10T10:37:37.885Z,34.18
2023-05-10T10:38:37.869Z,34.24
2023-05-10T10:39:38.043Z,34.25
2023-05-10T10:40:38.402Z,34.34
2023-05-10T10:41:38.391Z,34.29
2023-05-10T10:42:38.377Z,34.27
2023-05-10T10:43:38.041Z,34.20
2023-05-10T10:44:38.333Z,34.18
2023-05-10T10:45:38.493Z,34.21
2023-05-10T10:46:38.162Z,34.23
2023-05-10T10:47:38.206Z,34.14
2023-05-10T10:48:38.142Z,34.21
2023-05-10T10:49:38.138Z,34.11
2023-05-10T10:50:38.212Z,34.14
2023-05-10T10:51:38.196Z,34.02
2023-05-10T10:52:38.218Z,33.94
2023-05-10T10:53:38.227Z,33.92
2023-05-10T10:54:38.262Z,33.93
2023-05-10T10:55:38.291Z,33.78
2023-05-10T10:56:38.361Z,33.68
2023-05-10T10:57:38.300Z,33.63
2023-05-10T10:58:38.317Z,33.65
2023-05-10T10:59:38.322Z,33.55
2023-05-10T11:00:38.451Z,33.63
2023-05-10T11:01:38.539Z,33.50
2023-05-10T11:02:38.432Z,33.59
2023-05-10T11:03:38.428Z,33.60
2023-05-10T11:04:38.497Z,33.56
2023-05-10T11:05:38.475Z,33.57
2023-05-10T11:06:38.454Z,33.71
2023-05-10T11:07:38.492Z,33.79
2023-05-10T11:08:38.869Z,33.68
2023-05-10T11:09:38.499Z,33.54
2023-05-10T11:10:38.530Z,33.50
2023-05-10T11:11:38.889Z,33.50
2023-05-10T11:12:38.918Z,33.54
2023-05-10T11:13:38.531Z,33.44
2023-05-10T11:14:38.535Z,33.62
2023-05-10T11:15:38.894Z,33.82
2023-05-10T11:16:38.733Z,33.80
2023-05-10T11:17:38.578Z,33.67
2023-05-10T11:18:38.600Z,33.44
2023-05-10T11:19:38.564Z,32.98
2023-05-10T11:20:38.584Z,32.68
2023-05-10T11:21:38.578Z,32.67
2023-05-10T11:22:38.601Z,32.42
2023-05-10T11:23:38.618Z,32.50
2023-05-10T11:24:38.643Z,32.34
2023-05-10T11:25:38.659Z,32.15
2023-05-10T11:26:38.736Z,32.11
2023-05-10T11:27:38.746Z,32.09
2023-05-10T11:28:38.778Z,32.00
2023-05-10T11:29:38.798Z,31.78
2023-05-10T11:30:38.880Z,31.71
2023-05-10T11:31:38.875Z,31.67
2023-05-10T11:32:39.002Z,31.60
2023-05-10T11:33:38.984Z,31.30
2023-05-10T11:34:39.045Z,31.30
2023-05-10T11:35:41.030Z,31.24
2023-05-10T11:36:39.088Z,31.31
2023-05-10T11:37:39.077Z,31.22
2023-05-10T11:38:39.046Z,31.31
2023-05-10T11:39:39.085Z,31.15
2023-05-10T11:40:39.037Z,31.23
2023-05-10T11:41:39.658Z,31.19
2023-05-10T11:42:39.076Z,31.27
2023-05-10T11:43:39.037Z,31.14
2023-05-10T11:44:38.993Z,31.16
2023-05-10T11:45:39.019Z,31.09
2023-05-10T11:46:39.091Z,31.12
2023-05-10T11:47:40.800Z,31.09
2023-05-10T11:48:38.989Z,30.94
2023-05-10T11:49:39.002Z,30.87
2023-05-10T11:50:39.001Z,30.79
2023-05-10T11:51:38.970Z,30.78
2023-05-10T11:52:38.955Z,30.70
2023-05-10T11:53:39.002Z,30.71
2023-05-10T11:54:38.966Z,30.58
2023-05-10T11:55:38.914Z,30.56
2023-05-10T11:56:38.940Z,30.44
2023-05-10T11:57:38.900Z,30.17
2023-05-10T11:58:38.923Z,29.95
2023-05-10T11:59:39.865Z,30.00
2023-05-10T12:00:38.918Z,29.99
2023-05-10T12:01:38.870Z,30.05
2023-05-10T12:02:38.978Z,29.91
2023-05-10T12:03:39.658Z,30.06
2023-05-10T12:04:38.908Z,30.14
2023-05-10T12:05:40.566Z,30.48
2023-05-10T12:06:39.158Z,30.85
2023-05-10T12:07:39.106Z,31.76
2023-05-10T12:08:39.129Z,31.56
2023-05-10T12:09:43.815Z,31.61
2023-05-10T12:10:40.208Z,32.12
2023-05-10T12:11:40.546Z,32.11
2023-05-10T12:12:39.116Z,32.65
2023-05-10T12:13:39.135Z,32.60
2023-05-10T12:14:39.149Z,33.20
2023-05-10T12:15:39.154Z,33.35
2023-05-10T12:16:39.143Z,33.42
2023-05-10T12:17:40.238Z,33.48
2023-05-10T12:18:39.124Z,33.79
2023-05-10T12:19:39.055Z,33.67
2023-05-10T12:20:39.087Z,33.81
2023-05-10T12:21:39.098Z,33.86
2023-05-10T12:22:39.060Z,34.16
2023-05-10T12:23:39.110Z,34.32
2023-05-10T12:24:39.224Z,34.37
2023-05-10T12:25:39.232Z,34.32
2023-05-10T12:26:39.397Z,34.25
2023-05-10T12:27:39.355Z,34.32
2023-05-10T12:28:39.438Z,34.36
2023-05-10T12:29:41.059Z,34.33
2023-05-10T12:30:39.433Z,34.30
2023-05-10T12:31:39.461Z,34.43
2023-05-10T12:32:39.460Z,34.34
2023-05-10T12:33:39.450Z,34.38
2023-05-10T12:34:39.524Z,34.38
2023-05-10T12:35:40.741Z,34.37
2023-05-10T12:36:39.462Z,34.39
2023-05-10T12:37:39.408Z,34.37
2023-05-10T12:38:39.430Z,34.36
2023-05-10T12:39:39.396Z,34.34
2023-05-10T12:40:39.427Z,34.49
2023-05-10T12:41:41.458Z,34.53
2023-05-10T12:42:39.425Z,34.48
2023-05-10T12:43:39.402Z,34.51
2023-05-10T12:44:39.335Z,34.54
2023-05-10T12:45:39.384Z,34.50
2023-05-10T12:46:39.374Z,34.50
2023-05-10T12:47:42.215Z,34.52
2023-05-10T12:48:39.346Z,34.50
2023-05-10T12:49:39.330Z,34.42
2023-05-10T12:50:39.364Z,34.43
2023-05-10T12:51:39.314Z,34.60
2023-05-10T12:52:39.317Z,34.53